Amston, Connecticut
Current Conditions -  °F | °C
As of 8:52 PM on Wednesday 22 Oct 2014 (Local Time) from KIJD Reporting Station
Light Rain Light Rain  
Wind Chill: 50°   Ceiling: 1600
Heat Index: 50°   Visibility: 7mi
Dew Point: 46°   Wind: 21mph
Humidity: 86%   Direction: 20°NNE
Pressure: 29.73"   Gusts: 35mph
Location:  41.63°N, 72.34°W
Report Text: KIJD 230052Z AUTO 02018G30KT 7SM -RA BKN016 OVC020 10/08 A2973 RMK AO2 PK WND 03032/0001 LTG DSNT E-SW SLP066 P0005 T01000078
Loading
Personal Weather Stations






























Interactive Weather Map
Tropical Storm Tracking
New forecast layout! Learn more

10-Day Weather Forecast

Advertisements
Track Severe Weather on mobile